createdAt,value
2018-09-17T00:02:12.459Z,3.20
2018-09-17T00:04:40.835Z,3.75
2018-09-17T00:07:10.115Z,3.90
2018-09-17T00:09:38.658Z,3.47
2018-09-17T00:12:07.971Z,3.65
2018-09-17T00:14:36.310Z,3.00
2018-09-17T00:17:04.606Z,3.42
2018-09-17T00:19:33.015Z,3.10
2018-09-17T00:22:01.353Z,3.58
2018-09-17T00:24:29.743Z,3.40
2018-09-17T00:26:58.021Z,3.35
2018-09-17T00:29:26.344Z,3.37
2018-09-17T00:31:54.628Z,3.45
2018-09-17T00:34:22.973Z,3.40
2018-09-17T00:36:51.274Z,3.33
2018-09-17T00:39:20.414Z,3.58
2018-09-17T00:41:48.775Z,3.15
2018-09-17T00:44:17.089Z,2.87
2018-09-17T00:46:45.434Z,3.30
2018-09-17T00:49:13.710Z,3.52
2018-09-17T00:51:42.014Z,3.35
2018-09-17T00:54:10.331Z,3.55
2018-09-17T00:56:38.771Z,3.00
2018-09-17T00:59:07.325Z,3.22
2018-09-17T01:01:35.635Z,3.42
2018-09-17T01:04:04.041Z,3.12
2018-09-17T01:06:32.342Z,2.98
2018-09-17T01:09:00.680Z,3.35
2018-09-17T01:11:28.978Z,2.80
2018-09-17T01:13:57.249Z,4.08
2018-09-17T01:16:25.545Z,3.25
2018-09-17T01:18:53.815Z,3.30
2018-09-17T01:21:22.143Z,3.30
2018-09-17T01:23:51.054Z,2.98
2018-09-17T01:26:19.354Z,3.92
2018-09-17T01:28:47.672Z,3.10
2018-09-17T01:31:15.963Z,3.45
2018-09-17T01:33:44.245Z,3.42
2018-09-17T01:36:12.523Z,3.33
2018-09-17T01:38:41.111Z,3.40
2018-09-17T01:41:09.522Z,3.72
2018-09-17T01:43:38.818Z,3.60
2018-09-17T01:46:07.535Z,3.00
2018-09-17T01:48:35.845Z,3.47
2018-09-17T01:51:04.311Z,3.12
2018-09-17T01:53:32.601Z,3.22
2018-09-17T01:56:00.899Z,3.65
2018-09-17T01:58:29.139Z,3.83
2018-09-17T02:00:58.036Z,3.35
2018-09-17T02:03:26.954Z,3.27
2018-09-17T02:05:55.247Z,3.60
2018-09-17T02:08:23.524Z,3.40
2018-09-17T02:10:51.793Z,3.95
2018-09-17T02:13:20.111Z,3.30
2018-09-17T02:15:48.419Z,3.08
2018-09-17T02:18:17.304Z,3.15
2018-09-17T02:20:45.564Z,3.60
2018-09-17T02:23:14.934Z,3.80
2018-09-17T02:25:43.226Z,3.40
2018-09-17T02:28:11.501Z,3.50
2018-09-17T02:30:40.864Z,3.25
2018-09-17T02:33:09.197Z,3.60
2018-09-17T02:35:37.559Z,3.55
2018-09-17T02:38:07.193Z,3.50
2018-09-17T02:40:35.516Z,3.50
2018-09-17T02:43:05.621Z,3.83
2018-09-17T02:45:34.891Z,3.58
2018-09-17T02:48:03.172Z,3.47
2018-09-17T02:50:31.482Z,3.85
2018-09-17T02:52:59.862Z,3.85
2018-09-17T02:55:28.161Z,3.22
2018-09-17T02:57:56.521Z,4.50
2018-09-17T03:00:24.831Z,3.55
2018-09-17T03:02:53.606Z,3.75
2018-09-17T03:05:21.910Z,3.80
2018-09-17T03:07:50.220Z,4.08
2018-09-17T03:10:18.477Z,3.80
2018-09-17T03:12:46.794Z,4.28
2018-09-17T03:15:26.644Z,3.95
2018-09-17T03:17:55.887Z,3.85
2018-09-17T03:20:24.175Z,3.90
2018-09-17T03:22:52.548Z,4.00
2018-09-17T03:25:20.844Z,4.40
2018-09-17T03:27:49.124Z,3.90
2018-09-17T03:30:17.448Z,3.80
2018-09-17T03:32:46.293Z,4.25
2018-09-17T03:35:14.566Z,4.55
2018-09-17T03:37:43.411Z,4.25
2018-09-17T03:40:11.736Z,4.30
2018-09-17T03:42:40.068Z,3.75
2018-09-17T03:45:08.390Z,4.00
2018-09-17T03:47:36.761Z,4.47
2018-09-17T03:50:05.076Z,4.70
2018-09-17T03:52:33.360Z,4.65
2018-09-17T03:55:02.779Z,4.95
2018-09-17T03:57:31.255Z,4.00
2018-09-17T03:59:59.586Z,4.50
2018-09-17T04:02:28.024Z,4.08
2018-09-17T04:04:56.280Z,4.20
2018-09-17T04:07:24.590Z,4.05
2018-09-17T04:09:54.059Z,5.03
2018-09-17T04:12:22.463Z,4.12
2018-09-17T04:14:50.747Z,3.95
2018-09-17T04:17:19.181Z,4.20
2018-09-17T04:19:47.528Z,3.92
2018-09-17T04:22:15.926Z,4.90
2018-09-17T04:24:44.197Z,4.00
2018-09-17T04:27:12.553Z,4.37
2018-09-17T04:29:40.967Z,4.55
2018-09-17T04:32:09.894Z,4.92
2018-09-17T04:34:38.182Z,4.40
2018-09-17T04:39:41.438Z,4.53
2018-09-17T04:42:09.777Z,4.20
2018-09-17T04:44:38.996Z,3.70
2018-09-17T04:47:07.365Z,4.33
2018-09-17T04:49:35.686Z,3.90
2018-09-17T04:52:04.533Z,4.28
2018-09-17T04:54:33.266Z,4.90
2018-09-17T04:57:01.614Z,4.90
2018-09-17T04:59:30.016Z,4.90
2018-09-17T05:01:58.291Z,3.58
2018-09-17T05:04:26.788Z,3.90
2018-09-17T05:06:56.151Z,4.30
2018-09-17T05:09:24.470Z,4.97
2018-09-17T05:11:52.816Z,4.65
2018-09-17T05:14:23.722Z,5.97
2018-09-17T05:16:51.998Z,5.10
2018-09-17T05:19:20.244Z,5.00
2018-09-17T05:21:49.061Z,4.78
2018-09-17T05:24:17.554Z,5.00
2018-09-17T05:26:46.001Z,4.00
2018-09-17T05:29:14.348Z,5.12
2018-09-17T05:31:42.971Z,4.78
2018-09-17T05:34:11.324Z,4.83
2018-09-17T05:36:39.682Z,5.05
2018-09-17T05:39:10.524Z,4.85
2018-09-17T05:41:38.900Z,4.62
2018-09-17T05:44:09.766Z,4.40
2018-09-17T05:46:38.110Z,5.12
2018-09-17T05:49:06.420Z,5.20
2018-09-17T05:51:35.118Z,4.85
2018-09-17T05:54:08.172Z,5.58
2018-09-17T05:56:37.100Z,5.35
2018-09-17T05:59:07.164Z,4.97
2018-09-17T06:01:35.967Z,5.15
2018-09-17T06:04:05.925Z,5.00
2018-09-17T06:06:34.223Z,5.72
2018-09-17T06:09:03.159Z,4.80
2018-09-17T06:11:31.452Z,5.20
2018-09-17T06:13:59.718Z,4.95
2018-09-17T06:16:28.050Z,4.95
2018-09-17T06:18:56.335Z,5.47
2018-09-17T06:21:24.624Z,5.00
2018-09-17T06:23:52.945Z,6.05
2018-09-17T06:26:21.348Z,5.22
2018-09-17T06:28:49.676Z,4.70
2018-09-17T06:31:17.904Z,5.65
2018-09-17T06:33:46.198Z,5.25
2018-09-17T06:36:14.728Z,6.12
2018-09-17T06:38:44.492Z,5.67
2018-09-17T06:43:49.654Z,5.90
2018-09-17T06:46:18.601Z,4.97
2018-09-17T06:48:46.985Z,5.15
2018-09-17T06:51:16.539Z,6.53
2018-09-17T06:53:45.007Z,5.37
2018-09-17T06:56:14.536Z,5.28
2018-09-17T06:58:42.891Z,5.45
2018-09-17T07:01:11.419Z,5.80
2018-09-17T07:03:40.619Z,5.70
2018-09-17T07:06:09.129Z,6.17
2018-09-17T07:08:37.611Z,5.25
2018-09-17T07:11:09.498Z,5.65
2018-09-17T07:13:38.532Z,5.78
2018-09-17T07:16:07.423Z,6.58
2018-09-17T07:18:36.707Z,5.67
2018-09-17T07:21:05.088Z,8.58
2018-09-17T07:23:33.683Z,6.08
2018-09-17T07:26:02.876Z,6.42
2018-09-17T07:28:31.189Z,6.42
2018-09-17T07:31:01.011Z,7.15
2018-09-17T07:33:30.017Z,6.33
2018-09-17T07:35:59.883Z,6.40
2018-09-17T07:38:29.052Z,5.30
2018-09-17T07:41:03.887Z,6.95
2018-09-17T07:43:33.126Z,6.30
2018-09-17T07:46:01.487Z,7.10
2018-09-17T07:48:30.308Z,6.42
2018-09-17T07:50:58.594Z,6.47
2018-09-17T07:53:26.960Z,6.80
2018-09-17T07:55:55.300Z,6.20
2018-09-17T07:58:24.588Z,7.87
2018-09-17T08:00:52.889Z,6.70
2018-09-17T08:03:21.269Z,6.72
2018-09-17T08:05:49.693Z,6.65
2018-09-17T08:08:18.442Z,8.40
2018-09-17T08:10:46.813Z,6.65
2018-09-17T08:13:16.128Z,6.45
2018-09-17T08:15:44.438Z,6.25
2018-09-17T08:18:12.848Z,6.67
2018-09-17T08:20:41.372Z,5.90
2018-09-17T08:23:09.683Z,6.33
2018-09-17T08:25:38.423Z,5.60
2018-09-17T08:28:07.199Z,6.58
2018-09-17T08:30:35.628Z,6.42
2018-09-17T08:33:04.086Z,6.42
2018-09-17T08:35:32.501Z,6.67
2018-09-17T08:38:00.886Z,6.37
2018-09-17T08:40:29.655Z,6.80
2018-09-17T08:42:58.065Z,6.33
2018-09-17T08:45:26.401Z,6.08
2018-09-17T08:47:54.704Z,5.85
2018-09-17T08:50:22.994Z,6.95
2018-09-17T08:52:51.354Z,6.25
2018-09-17T08:55:25.026Z,6.90
2018-09-17T08:57:56.314Z,6.70
2018-09-17T09:00:30.153Z,6.55
2018-09-17T09:03:03.865Z,6.12
2018-09-17T09:05:37.719Z,6.53
2018-09-17T09:08:07.491Z,5.67
2018-09-17T09:10:42.029Z,6.35
2018-09-17T09:13:14.595Z,6.05
2018-09-17T09:15:42.943Z,6.97
2018-09-17T09:18:11.339Z,6.53
2018-09-17T09:20:39.896Z,5.83
2018-09-17T09:23:08.542Z,5.65
2018-09-17T09:25:36.989Z,5.20
2018-09-17T09:28:05.447Z,6.03
2018-09-17T09:30:33.960Z,4.92
2018-09-17T09:33:02.339Z,5.55
2018-09-17T09:35:30.670Z,5.50
2018-09-17T09:37:59.731Z,5.92
2018-09-17T09:40:28.163Z,5.60
2018-09-17T09:42:57.128Z,5.80
2018-09-17T09:45:25.580Z,6.03
2018-09-17T09:47:54.049Z,4.83
2018-09-17T09:50:22.436Z,4.90
2018-09-17T09:52:50.983Z,3.70
2018-09-17T09:55:19.351Z,4.40
2018-09-17T09:57:47.710Z,3.92
2018-09-17T10:00:23.036Z,3.60
2018-09-17T10:02:56.744Z,3.25
2018-09-17T10:05:25.357Z,4.70
2018-09-17T10:07:53.920Z,3.75
2018-09-17T10:10:28.624Z,3.58
2018-09-17T10:13:03.415Z,3.65
2018-09-17T10:15:40.082Z,2.85
2018-09-17T10:18:13.965Z,3.58
2018-09-17T10:20:42.496Z,2.80
2018-09-17T10:23:11.026Z,3.42
2018-09-17T10:25:39.543Z,3.17
2018-09-17T10:28:09.068Z,3.00
2018-09-17T10:30:39.218Z,2.75
2018-09-17T10:33:08.035Z,3.17
2018-09-17T10:35:38.863Z,2.90
2018-09-17T10:38:08.406Z,3.02
2018-09-17T10:40:38.095Z,2.55
2018-09-17T10:43:08.218Z,2.50
2018-09-17T10:45:37.351Z,2.50
2018-09-17T10:48:07.375Z,2.15
2018-09-17T10:50:35.919Z,1.98
2018-09-17T10:53:04.534Z,1.67
2018-09-17T10:55:34.904Z,1.72
2018-09-17T10:58:04.228Z,1.72
2018-09-17T11:00:32.822Z,1.70
2018-09-17T11:03:01.568Z,1.60
2018-09-17T11:05:30.189Z,2.27
2018-09-17T11:08:05.586Z,1.50
2018-09-17T11:10:34.855Z,1.57
2018-09-17T11:13:04.524Z,1.57
2018-09-17T11:15:39.251Z,1.30
2018-09-17T11:18:07.943Z,1.62
2018-09-17T11:20:37.442Z,1.30
2018-09-17T11:23:06.773Z,1.82
2018-09-17T11:25:35.699Z,1.42
2018-09-17T11:28:04.950Z,1.80
2018-09-17T11:30:34.060Z,1.50
2018-09-17T11:33:03.451Z,1.47
2018-09-17T11:35:31.939Z,1.40
2018-09-17T11:38:01.163Z,1.05
2018-09-17T11:40:29.799Z,1.20
2018-09-17T11:43:00.082Z,1.20
2018-09-17T11:45:28.589Z,0.80
2018-09-17T11:47:57.405Z,1.25
2018-09-17T11:50:26.054Z,1.57
2018-09-17T11:52:54.686Z,1.12
2018-09-17T11:55:23.118Z,1.35
2018-09-17T11:57:51.536Z,1.20
2018-09-17T12:00:25.434Z,1.40
2018-09-17T12:02:59.187Z,1.65
2018-09-17T12:05:32.899Z,1.20
2018-09-17T12:08:01.351Z,1.50
2018-09-17T12:10:29.777Z,1.10
2018-09-17T12:12:58.103Z,1.17
2018-09-17T12:15:26.470Z,1.15
2018-09-17T12:17:54.812Z,1.10
2018-09-17T12:20:23.228Z,1.30
2018-09-17T12:22:51.726Z,1.32
2018-09-17T12:25:20.050Z,1.35
2018-09-17T12:27:48.471Z,1.30
2018-09-17T12:30:16.843Z,1.42
2018-09-17T12:32:45.197Z,1.50
2018-09-17T12:35:14.351Z,1.62
2018-09-17T12:37:42.724Z,1.55
2018-09-17T12:40:11.803Z,1.42
2018-09-17T12:42:40.362Z,1.10
2018-09-17T12:45:09.387Z,1.37
2018-09-17T12:47:37.927Z,1.15
2018-09-17T12:50:07.133Z,1.32
2018-09-17T12:52:42.466Z,1.07
2018-09-17T12:55:11.490Z,1.10
2018-09-17T12:57:46.783Z,1.50
2018-09-17T13:00:19.659Z,1.35
2018-09-17T13:02:48.243Z,1.47
2018-09-17T13:05:17.328Z,1.30
2018-09-17T13:07:46.099Z,1.17
2018-09-17T13:10:14.495Z,1.50
2018-09-17T13:12:42.893Z,1.02
2018-09-17T13:15:11.234Z,1.20
2018-09-17T13:17:39.896Z,1.05
2018-09-17T13:20:09.319Z,1.40
2018-09-17T13:22:37.897Z,1.40
2018-09-17T13:25:06.465Z,1.45
2018-09-17T13:27:35.013Z,1.27
2018-09-17T13:30:03.596Z,1.55
2018-09-17T13:32:31.668Z,1.10
2018-09-17T13:35:02.564Z,1.20
2018-09-17T13:37:31.004Z,1.37
2018-09-17T13:40:00.146Z,1.67
2018-09-17T13:42:28.590Z,1.50
2018-09-17T13:44:57.354Z,1.10
2018-09-17T13:47:25.766Z,1.15
2018-09-17T13:49:54.982Z,1.37
2018-09-17T13:52:23.379Z,1.50
2018-09-17T13:54:51.898Z,1.35
2018-09-17T13:57:20.255Z,1.67
2018-09-17T13:59:48.923Z,1.60
2018-09-17T14:02:17.226Z,1.45
2018-09-17T14:04:48.836Z,2.35
2018-09-17T14:07:17.596Z,2.05
2018-09-17T14:09:48.207Z,1.62
2018-09-17T14:12:17.192Z,1.70
2018-09-17T14:14:45.586Z,1.90
2018-09-17T14:17:17.749Z,2.27
2018-09-17T14:19:46.089Z,2.20
2018-09-17T14:22:15.030Z,1.80
2018-09-17T14:24:43.362Z,1.90
2018-09-17T14:27:13.153Z,2.08
2018-09-17T14:29:42.280Z,2.30
2018-09-17T14:33:13.957Z,2.00
2018-09-17T14:35:42.488Z,2.35
2018-09-17T14:38:10.896Z,2.10
2018-09-17T14:40:39.220Z,3.12
2018-09-17T14:43:09.090Z,2.15
2018-09-17T14:45:37.911Z,1.42
2018-09-17T14:48:08.040Z,3.22
2018-09-17T14:50:36.804Z,2.33
2018-09-17T14:53:06.612Z,2.83
2018-09-17T14:55:35.096Z,2.75
2018-09-17T14:58:04.895Z,2.72
2018-09-17T15:00:33.920Z,1.77
2018-09-17T15:03:02.580Z,2.45
2018-09-17T15:05:32.905Z,2.12
2018-09-17T15:08:01.785Z,1.77
2018-09-17T15:10:30.203Z,1.85
2018-09-17T15:12:59.609Z,2.30
2018-09-17T15:15:30.764Z,2.33
2018-09-17T15:17:59.976Z,2.22
2018-09-17T15:20:32.101Z,2.65
2018-09-17T15:23:11.749Z,2.70
2018-09-17T15:25:42.565Z,3.02
2018-09-17T15:28:16.523Z,3.00
2018-09-17T15:30:50.834Z,2.30
2018-09-17T15:33:23.704Z,3.08
2018-09-17T15:35:57.518Z,2.87
2018-09-17T15:38:26.888Z,2.55
2018-09-17T15:40:56.972Z,2.95
2018-09-17T15:43:25.439Z,2.50
2018-09-17T15:45:53.921Z,3.65
2018-09-17T15:48:23.446Z,2.83
2018-09-17T15:50:51.962Z,2.90
2018-09-17T15:53:20.810Z,2.70
2018-09-17T15:55:49.362Z,2.87
2018-09-17T15:58:17.895Z,1.70
2018-09-17T16:00:46.427Z,2.00
2018-09-17T16:03:14.839Z,1.52
2018-09-17T16:05:43.291Z,2.72
2018-09-17T16:08:11.776Z,2.27
2018-09-17T16:10:40.263Z,3.42
2018-09-17T16:13:08.693Z,2.80
2018-09-17T16:15:37.163Z,2.20
2018-09-17T16:18:05.648Z,2.55
2018-09-17T16:20:34.997Z,2.67
2018-09-17T16:23:03.394Z,2.67
2018-09-17T16:25:31.750Z,2.40
2018-09-17T16:28:00.532Z,2.45
2018-09-17T16:30:29.768Z,2.50
2018-09-17T16:32:59.618Z,3.10
2018-09-17T16:35:28.092Z,3.30
2018-09-17T16:38:00.533Z,2.37
2018-09-17T16:40:34.344Z,2.17
2018-09-17T16:43:03.087Z,2.30
2018-09-17T16:45:31.668Z,1.95
2018-09-17T16:48:03.338Z,1.90
2018-09-17T16:50:33.706Z,2.25
2018-09-17T16:53:02.215Z,2.20
2018-09-17T16:55:31.162Z,1.65
2018-09-17T16:58:03.061Z,1.52
2018-09-17T17:00:34.567Z,2.10
2018-09-17T17:03:08.784Z,4.33
2018-09-17T17:05:37.166Z,2.65
2018-09-17T17:08:06.702Z,2.25
2018-09-17T17:10:37.421Z,2.00
2018-09-17T17:13:07.558Z,1.92
2018-09-17T17:15:38.941Z,1.55
2018-09-17T17:18:08.071Z,1.85
2018-09-17T17:20:37.481Z,2.15
2018-09-17T17:23:06.072Z,2.05
2018-09-17T17:25:34.687Z,2.22
2018-09-17T17:28:04.770Z,1.75
2018-09-17T17:30:33.466Z,2.22
2018-09-17T17:33:02.066Z,2.00
2018-09-17T17:35:30.460Z,2.20
2018-09-17T17:37:59.037Z,2.20
2018-09-17T17:40:28.024Z,2.40
2018-09-17T17:42:56.261Z,2.42
2018-09-17T17:45:24.865Z,2.35
2018-09-17T17:47:53.229Z,2.00
2018-09-17T17:50:21.668Z,2.05
2018-09-17T17:52:54.552Z,2.65
2018-09-17T17:55:23.223Z,1.80
2018-09-17T17:57:52.046Z,1.85
2018-09-17T18:00:20.631Z,2.60
2018-09-17T18:02:49.104Z,2.45
2018-09-17T18:05:17.517Z,3.00
2018-09-17T18:07:45.877Z,2.92
2018-09-17T18:10:14.899Z,2.30
2018-09-17T18:12:43.516Z,2.15
2018-09-17T18:15:12.082Z,2.35
2018-09-17T18:17:46.646Z,2.17
2018-09-17T18:20:15.015Z,2.12
2018-09-17T18:22:44.065Z,2.70
2018-09-17T18:25:18.539Z,2.55
2018-09-17T18:27:47.579Z,2.80
2018-09-17T18:30:16.514Z,2.52
2018-09-17T18:32:46.453Z,2.40
2018-09-17T18:35:14.811Z,2.35
2018-09-17T18:37:43.361Z,2.15
2018-09-17T18:40:13.070Z,2.25
2018-09-17T18:42:42.707Z,2.20
2018-09-17T18:45:11.095Z,2.02
2018-09-17T18:47:51.136Z,2.45
2018-09-17T18:50:21.396Z,2.87
2018-09-17T18:52:50.603Z,2.27
2018-09-17T18:55:18.951Z,2.80
2018-09-17T18:57:47.259Z,2.65
2018-09-17T19:00:15.660Z,2.85
2018-09-17T19:02:44.807Z,2.77
2018-09-17T19:05:13.056Z,2.85
2018-09-17T19:07:41.430Z,3.42
2018-09-17T19:10:09.829Z,3.00
2018-09-17T19:12:40.071Z,3.22
2018-09-17T19:15:14.271Z,2.50
2018-09-17T19:17:43.460Z,3.00
2018-09-17T19:20:12.535Z,3.30
2018-09-17T19:22:46.697Z,3.52
2018-09-17T19:25:16.258Z,3.55
2018-09-17T19:27:50.021Z,3.72
2018-09-17T19:30:18.419Z,3.98
2018-09-17T19:32:47.021Z,4.70
2018-09-17T19:35:15.478Z,3.70
2018-09-17T19:37:50.673Z,3.55
2018-09-17T19:40:20.383Z,4.10
2018-09-17T19:42:49.526Z,3.20
2018-09-17T19:45:23.923Z,3.37
2018-09-17T19:47:52.899Z,3.72
2018-09-17T19:50:27.115Z,3.83
2018-09-17T19:52:55.549Z,3.62
2018-09-17T19:55:24.963Z,3.10
2018-09-17T19:57:58.515Z,3.42
2018-09-17T20:00:27.676Z,3.62
2018-09-17T20:02:56.011Z,4.45
2018-09-17T20:05:29.551Z,3.60
2018-09-17T20:07:57.865Z,3.55
2018-09-17T20:10:26.207Z,3.65
2018-09-17T20:12:55.792Z,3.98
2018-09-17T20:15:24.310Z,4.08
2018-09-17T20:17:52.790Z,3.58
2018-09-17T20:20:21.480Z,3.47
2018-09-17T20:22:49.769Z,4.00
2018-09-17T20:25:18.000Z,3.47
2018-09-17T20:27:46.265Z,3.80
2018-09-17T20:30:15.405Z,3.90
2018-09-17T20:32:46.531Z,3.95
2018-09-17T20:35:16.043Z,4.08
2018-09-17T20:37:45.104Z,4.08
2018-09-17T20:40:13.467Z,4.10
2018-09-17T20:42:41.790Z,3.65
2018-09-17T20:45:10.722Z,3.35
2018-09-17T20:47:39.050Z,3.33
2018-09-17T20:50:07.950Z,4.20
2018-09-17T20:52:36.251Z,3.83
2018-09-17T20:55:04.759Z,3.80
2018-09-17T20:57:33.056Z,4.28
2018-09-17T21:00:01.361Z,4.05
2018-09-17T21:02:29.678Z,5.03
2018-09-17T21:04:57.926Z,4.00
2018-09-17T21:07:26.279Z,4.10
2018-09-17T21:09:54.530Z,4.28
2018-09-17T21:12:22.861Z,4.60
2018-09-17T21:14:51.111Z,3.12
2018-09-17T21:17:19.385Z,4.10
2018-09-17T21:19:47.687Z,4.65
2018-09-17T21:22:16.010Z,4.55
2018-09-17T21:24:44.361Z,4.03
2018-09-17T21:27:12.636Z,4.80
2018-09-17T21:29:40.907Z,5.55
2018-09-17T21:32:09.960Z,4.62
2018-09-17T21:34:38.244Z,4.25
2018-09-17T21:37:06.599Z,3.80
2018-09-17T21:39:35.174Z,5.00
2018-09-17T21:42:03.492Z,5.47
2018-09-17T21:44:31.775Z,5.08
2018-09-17T21:47:01.325Z,5.17
2018-09-17T21:49:29.597Z,5.08
2018-09-17T21:51:57.880Z,4.92
2018-09-17T21:54:26.152Z,4.53
2018-09-17T21:56:54.454Z,5.17
2018-09-17T21:59:22.749Z,4.45
2018-09-17T22:01:51.111Z,5.25
2018-09-17T22:04:19.471Z,5.42
2018-09-17T22:06:47.699Z,5.87
2018-09-17T22:09:16.049Z,5.55
2018-09-17T22:11:44.380Z,5.53
2018-09-17T22:14:12.654Z,5.30
2018-09-17T22:16:40.958Z,5.80
2018-09-17T22:19:09.228Z,5.62
2018-09-17T22:21:37.558Z,5.20
2018-09-17T22:24:05.875Z,5.87
2018-09-17T22:26:34.163Z,5.75
2018-09-17T22:29:02.453Z,6.15
2018-09-17T22:31:30.747Z,5.62
2018-09-17T22:33:59.732Z,4.80
2018-09-17T22:36:27.984Z,6.53
2018-09-17T22:38:56.540Z,6.05
2018-09-17T22:41:24.839Z,6.30
2018-09-17T22:43:53.114Z,5.20
2018-09-17T22:46:21.409Z,5.78
2018-09-17T22:48:49.672Z,6.53
2018-09-17T22:51:18.077Z,5.60
2018-09-17T22:53:46.340Z,5.75
2018-09-17T22:56:14.641Z,4.95
2018-09-17T22:58:43.121Z,6.20
2018-09-17T23:01:11.383Z,5.35
2018-09-17T23:03:39.640Z,4.67
2018-09-17T23:06:08.186Z,5.42
2018-09-17T23:08:36.996Z,4.60
2018-09-17T23:11:05.360Z,4.95
2018-09-17T23:13:33.658Z,5.37
2018-09-17T23:16:02.859Z,4.10
2018-09-17T23:18:31.143Z,5.42
2018-09-17T23:20:59.427Z,5.30
2018-09-17T23:23:28.095Z,5.08
2018-09-17T23:25:56.414Z,5.53
2018-09-17T23:28:24.681Z,4.53
2018-09-17T23:30:53.340Z,4.15
2018-09-17T23:33:21.612Z,4.50
2018-09-17T23:35:49.879Z,5.35
2018-09-17T23:38:18.200Z,4.97
2018-09-17T23:40:46.482Z,4.90
2018-09-17T23:43:14.772Z,5.50
2018-09-17T23:45:43.082Z,5.17
2018-09-17T23:48:11.353Z,6.15
2018-09-17T23:50:39.650Z,5.65
2018-09-17T23:53:08.659Z,5.25
2018-09-17T23:55:36.948Z,4.87
2018-09-17T23:58:05.211Z,5.60
